| time (UTC) | temp F | wind direction | speed MPH | gust MPH | rain 1hr in | rain 24hr in | rain mn in | humidity % | barometer mb |
| 20260510192250 | 65 | 294 | 10.0 | 17.0 | 0.00 | 0.00 | 0.00 | 36 | 1356.9 |
| 20260510191746 | 65 | 52 | 0.0 | 27.0 | 0.00 | 0.00 | 0.00 | 35 | 1356.8 |
| 20260510191242 | 66 | 82 | 3.0 | 14.0 | 0.00 | 0.00 | 0.00 | 34 | 1356.8 |
| 20260510190741 | 63 | 247 | 5.0 | 16.0 | 0.00 | 0.00 | 0.00 | 36 | 1356.9 |
| 20260510190237 | 64 | 169 | 5.0 | 20.0 | 0.00 | 0.00 | 0.00 | 34 | 1357.1 |
| 20260510185733 | 66 | 186 | 4.0 | 18.0 | 0.00 | 0.00 | 0.00 | 33 | 1356.7 |
| 20260510185232 | 66 | 176 | 4.0 | 13.0 | 0.00 | 0.00 | 0.00 | 33 | 1356.9 |
| 20260510184728 | 65 | 270 | 5.0 | 26.0 | 0.00 | 0.00 | 0.00 | 34 | 1356.8 |
| 20260510184225 | 66 | 194 | 3.0 | 12.0 | 0.00 | 0.00 | 0.00 | 33 | 1356.8 |
| 20260510183720 | 64 | 18 | 7.0 | 18.0 | 0.00 | 0.00 | 0.00 | 35 | 1356.8 |
| 20260510183215 | 64 | 153 | 9.0 | 19.0 | 0.00 | 0.00 | 0.00 | 35 | 1356.6 |
| 20260510182712 | 64 | 263 | 3.0 | 15.0 | 0.00 | 0.00 | 0.00 | 34 | 1356.7 |
| 20260510182207 | 64 | 190 | 3.0 | 23.0 | 0.00 | 0.00 | 0.00 | 34 | 1356.8 |
| 20260510181704 | 64 | 179 | 15.0 | 20.0 | 0.00 | 0.00 | 0.00 | 35 | 1356.7 |
| 20260510181201 | 65 | 66 | 2.0 | 18.0 | 0.00 | 0.00 | 0.00 | 35 | 1356.6 |
| 20260510180657 | 64 | 12 | 9.0 | 18.0 | 0.00 | 0.00 | 0.00 | 36 | 1356.8 |
| 20260510180155 | 64 | 255 | 2.0 | 22.0 | 0.00 | 0.00 | 0.00 | 35 | 1356.9 |
| 20260510175650 | 65 | 23 | 6.0 | 18.0 | 0.00 | 0.00 | 0.00 | 34 | 1356.6 |
| 20260510175147 | 61 | 23 | 9.0 | 15.0 | 0.00 | 0.00 | 0.00 | 37 | 1356.4 |
| 20260510174644 | 64 | 233 | 2.0 | 19.0 | 0.00 | 0.00 | 0.00 | 35 | 1356.9 |
| 20260510174142 | 63 | 31 | 6.0 | 28.0 | 0.00 | 0.00 | 0.00 | 36 | 1357.2 |
| 20260510173637 | 64 | 317 | 5.0 | 18.0 | 0.00 | 0.00 | 0.00 | 35 | 1356.9 |
| 20260510173134 | 63 | 195 | 3.0 | 15.0 | 0.00 | 0.00 | 0.00 | 35 | 1357.2 |
| 20260510172629 | 62 | 354 | 4.0 | 22.0 | 0.00 | 0.00 | 0.00 | 37 | 1356.9 |
| 20260510172126 | 65 | 164 | 6.0 | 11.0 | 0.00 | 0.00 | 0.00 | 33 | 1356.9 |
| 20260510171622 | 63 | 315 | 2.0 | 13.0 | 0.00 | 0.00 | 0.00 | 34 | 1356.9 |
| 20260510171120 | 63 | 220 | 9.0 | 19.0 | 0.00 | 0.00 | 0.00 | 35 | 1356.8 |
| 20260510170616 | 62 | 123 | 7.0 | 16.0 | 0.00 | 0.00 | 0.00 | 36 | 1357.2 |
| 20260510170113 | 62 | 153 | 3.0 | 9.0 | 0.00 | 0.00 | 0.00 | 36 | 1356.9 |
| 20260510165608 | 61 | 71 | 3.0 | 16.0 | 0.00 | 0.00 | 0.00 | 37 | 1356.8 |
| 20260510165104 | 61 | 220 | 3.0 | 11.0 | 0.00 | 0.00 | 0.00 | 37 | 1357.1 |
| 20260510164602 | 60 | 119 | 4.0 | 20.0 | 0.00 | 0.00 | 0.00 | 39 | 1357.1 |
| 20260510164058 | 60 | 43 | 7.0 | 24.0 | 0.00 | 0.00 | 0.00 | 39 | 1356.8 |
| 20260510163554 | 60 | 214 | 11.0 | 20.0 | 0.00 | 0.00 | 0.00 | 40 | 1356.6 |
| 20260510163051 | 60 | 342 | 5.0 | 11.0 | 0.00 | 0.00 | 0.00 | 41 | 1356.6 |
| 20260510162545 | 59 | 101 | 10.0 | 15.0 | 0.00 | 0.00 | 0.00 | 41 | 1356.6 |
| 20260510162042 | 59 | 351 | 10.0 | 17.0 | 0.00 | 0.00 | 0.00 | 42 | 1356.9 |
| 20260510161538 | 59 | 131 | 3.0 | 19.0 | 0.00 | 0.00 | 0.00 | 42 | 1356.7 |
| 20260510161035 | 59 | 80 | 0.0 | 14.0 | 0.00 | 0.00 | 0.00 | 42 | 1356.6 |
| 20260510160532 | 59 | 165 | 5.0 | 13.0 | 0.00 | 0.00 | 0.00 | 43 | 1356.6 |
| 20260510160031 | 58 | 191 | 0.0 | 20.0 | 0.00 | 0.00 | 0.00 | 42 | 1356.7 |
| 20260510155528 | 57 | 126 | 9.0 | 17.0 | 0.00 | 0.00 | 0.00 | 45 | 1356.6 |
| 20260510155025 | 57 | 130 | 6.0 | 21.0 | 0.00 | 0.00 | 0.00 | 45 | 1356.6 |
| 20260510154520 | 57 | 201 | 0.0 | 17.0 | 0.00 | 0.00 | 0.00 | 46 | 1356.6 |
| 20260510154015 | 56 | 180 | 2.0 | 25.0 | 0.00 | 0.00 | 0.00 | 47 | 1356.4 |
| 20260510153510 | 56 | 63 | 3.0 | 17.0 | 0.00 | 0.00 | 0.00 | 47 | 1356.4 |
| 20260510153007 | 56 | 355 | 4.0 | 11.0 | 0.00 | 0.00 | 0.00 | 47 | 1356.4 |
| 20260510152504 | 56 | 131 | 0.0 | 9.0 | 0.00 | 0.00 | 0.00 | 47 | 1356.6 |
| 20260510152001 | 56 | 87 | 7.0 | 11.0 | 0.00 | 0.00 | 0.00 | 47 | 1356.2 |
| 20260510151458 | 56 | 113 | 11.0 | 23.0 | 0.00 | 0.00 | 0.00 | 48 | 1356.4 |
| 20260510150955 | 56 | 165 | 3.0 | 15.0 | 0.00 | 0.00 | 0.00 | 46 | 1356.2 |
| 20260510150450 | 57 | 17 | 7.0 | 13.0 | 0.00 | 0.00 | 0.00 | 43 | 1356.1 |
| 20260510145946 | 59 | 261 | 3.0 | 11.0 | 0.00 | 0.00 | 0.00 | 38 | 1355.9 |
| 20260510145442 | 57 | 217 | 5.0 | 11.0 | 0.00 | 0.00 | 0.00 | 40 | 1355.9 |
| 20260510144939 | 58 | 28 | 9.0 | 9.0 | 0.00 | 0.00 | 0.00 | 38 | 1355.9 |
| 20260510144436 | 57 | 339 | 3.0 | 10.0 | 0.00 | 0.00 | 0.00 | 39 | 1355.9 |
| 20260510143931 | 58 | 128 | 2.0 | 9.0 | 0.00 | 0.00 | 0.00 | 39 | 1355.9 |
| 20260510143427 | 57 | 297 | 3.0 | 6.0 | 0.00 | 0.00 | 0.00 | 39 | 1355.8 |
| 20260510142925 | 58 | 195 | 2.0 | 9.0 | 0.00 | 0.00 | 0.00 | 38 | 1355.9 |
| 20260510142421 | 58 | 66 | 1.0 | 3.0 | 0.00 | 0.00 | 0.00 | 37 | 1356.1 |
| 20260510141918 | 56 | 42 | 6.0 | 9.0 | 0.00 | 0.00 | 0.00 | 40 | 1355.7 |
| 20260510141415 | 54 | 9 | 10.0 | 10.0 | 0.00 | 0.00 | 0.00 | 42 | 1355.8 |
| 20260510140912 | 54 | 86 | 7.0 | 13.0 | 0.00 | 0.00 | 0.00 | 41 | 1355.6 |
| 20260510140408 | 55 | 32 | 3.0 | 10.0 | 0.00 | 0.00 | 0.00 | 41 | 1355.8 |
| 20260510135907 | 53 | 33 | 8.0 | 15.0 | 0.00 | 0.00 | 0.00 | 43 | 1355.6 |
| 20260510135403 | 53 | 32 | 3.0 | 9.0 | 0.00 | 0.00 | 0.00 | 43 | 1355.7 |
| 20260510134901 | 53 | 29 | 10.0 | 16.0 | 0.00 | 0.00 | 0.00 | 44 | 1355.6 |
| 20260510134357 | 53 | 94 | 3.0 | 8.0 | 0.00 | 0.00 | 0.00 | 44 | 1355.4 |
| 20260510133854 | 52 | 352 | 0.0 | 7.0 | 0.00 | 0.00 | 0.00 | 44 | 1355.3 |
| 20260510133350 | 52 | 90 | 5.0 | 11.0 | 0.00 | 0.00 | 0.00 | 44 | 1355.1 |
| 20260510132845 | 52 | 86 | 2.0 | 7.0 | 0.00 | 0.00 | 0.00 | 43 | 1355.2 |
| 20260510132344 | 52 | 86 | 5.0 | 15.0 | 0.00 | 0.00 | 0.00 | 43 | 1355.3 |
| 20260510131840 | 52 | 107 | 3.0 | 11.0 | 0.00 | 0.00 | 0.00 | 43 | 1355.4 |
| 20260510131338 | 52 | 106 | 5.0 | 5.0 | 0.00 | 0.00 | 0.00 | 43 | 1355.1 |
| 20260510130834 | 52 | 237 | 1.0 | 2.0 | 0.00 | 0.00 | 0.00 | 42 | 1354.9 |
| 20260510130331 | 52 | 276 | 2.0 | 3.0 | 0.00 | 0.00 | 0.00 | 41 | 1354.7 |
| 20260510125828 | 52 | 123 | 4.0 | 7.0 | 0.00 | 0.00 | 0.00 | 41 | 1354.8 |
| 20260510125324 | 52 | 90 | 3.0 | 7.0 | 0.00 | 0.00 | 0.00 | 41 | 1354.8 |
| 20260510124821 | 53 | 37 | 4.0 | 7.0 | 0.00 | 0.00 | 0.00 | 41 | 1354.7 |
| 20260510124318 | 53 | 71 | 3.0 | 7.0 | 0.00 | 0.00 | 0.00 | 40 | 1354.4 |
| 20260510123813 | 52 | 70 | 5.0 | 9.0 | 0.00 | 0.00 | 0.00 | 40 | 1354.3 |
| 20260510123309 | 52 | 92 | 5.0 | 9.0 | 0.00 | 0.00 | 0.00 | 40 | 1354.7 |
| 20260510122806 | 52 | 56 | 4.0 | 6.0 | 0.00 | 0.00 | 0.00 | 40 | 1354.4 |
| 20260510122305 | 53 | 62 | 6.0 | 11.0 | 0.00 | 0.00 | 0.00 | 40 | 1354.3 |
| 20260510121758 | 53 | 104 | 7.0 | 12.0 | 0.00 | 0.00 | 0.00 | 40 | 1354.2 |
| 20260510121256 | 53 | 88 | 4.0 | 10.0 | 0.00 | 0.00 | 0.00 | 39 | 1354.6 |
| 20260510120753 | 53 | 25 | 4.0 | 11.0 | 0.00 | 0.00 | 0.00 | 39 | 1354.6 |
| 20260510120249 | 53 | 90 | 2.0 | 8.0 | 0.00 | 0.00 | 0.00 | 39 | 1354.3 |
| 20260510115745 | 53 | 106 | 8.0 | 8.0 | 0.00 | 0.00 | 0.00 | 38 | 1354.6 |
| 20260510115244 | 54 | 80 | 3.0 | 13.0 | 0.00 | 0.00 | 0.00 | 38 | 1354.3 |
| 20260510114738 | 53 | 285 | 0.0 | 5.0 | 0.00 | 0.00 | 0.00 | 38 | 1354.4 |
| 20260510114236 | 53 | 100 | 6.0 | 9.0 | 0.00 | 0.00 | 0.00 | 38 | 1354.4 |
| 20260510113731 | 53 | 119 | 4.0 | 6.0 | 0.00 | 0.00 | 0.00 | 38 | 1354.6 |
| 20260510113229 | 53 | 30 | 4.0 | 6.0 | 0.00 | 0.00 | 0.00 | 37 | 1354.6 |
| 20260510112725 | 54 | 171 | 5.0 | 9.0 | 0.00 | 0.00 | 0.00 | 37 | 1354.7 |
| 20260510112222 | 54 | 130 | 5.0 | 14.0 | 0.00 | 0.00 | 0.00 | 37 | 1354.4 |
| 20260510111717 | 54 | 124 | 4.0 | 9.0 | 0.00 | 0.00 | 0.00 | 38 | 1355.1 |
| 20260510111214 | 55 | 71 | 8.0 | 17.0 | 0.00 | 0.00 | 0.00 | 37 | 1354.6 |
| 20260510110709 | 55 | 124 | 3.0 | 6.0 | 0.00 | 0.00 | 0.00 | 33 | 1354.8 |
| 20260510110207 | 55 | 99 | 10.0 | 11.0 | 0.00 | 0.00 | 0.00 | 33 | 1354.7 |
| 20260510105706 | 55 | 43 | 5.0 | 11.0 | 0.00 | 0.00 | 0.00 | 33 | 1354.4 |
| 20260510105206 | 55 | 73 | 3.0 | 5.0 | 0.00 | 0.00 | 0.00 | 33 | 1354.4 |
| 20260510104704 | 55 | 71 | 5.0 | 8.0 | 0.00 | 0.00 | 0.00 | 33 | 1354.4 |
| 20260510104201 | 55 | 41 | 7.0 | 7.0 | 0.00 | 0.00 | 0.00 | 33 | 1354.3 |
| 20260510103657 | 56 | 186 | 0.0 | 4.0 | 0.00 | 0.00 | 0.00 | 32 | 1354.2 |
| 20260510103154 | 56 | 95 | 0.0 | 4.0 | 0.00 | 0.00 | 0.00 | 32 | 1354.2 |
| 20260510102654 | 56 | 24 | 4.0 | 9.0 | 0.00 | 0.00 | 0.00 | 32 | 1353.9 |
| 20260510102150 | 57 | 51 | 10.0 | 19.0 | 0.00 | 0.00 | 0.00 | 32 | 1353.9 |
| 20260510101648 | 56 | 180 | 5.0 | 17.0 | 0.00 | 0.00 | 0.00 | 31 | 1353.6 |
| 20260510101146 | 56 | 106 | 5.0 | 14.0 | 0.00 | 0.00 | 0.00 | 31 | 1353.6 |
| 20260510100642 | 56 | 98 | 5.0 | 15.0 | 0.00 | 0.00 | 0.00 | 31 | 1353.9 |
| 20260510100140 | 56 | 169 | 2.0 | 9.0 | 0.00 | 0.00 | 0.00 | 30 | 1353.7 |
| 20260510095635 | 56 | 130 | 4.0 | 13.0 | 0.00 | 0.00 | 0.00 | 30 | 1353.8 |
| 20260510095131 | 56 | 68 | 9.0 | 10.0 | 0.00 | 0.00 | 0.00 | 30 | 1354.3 |
| 20260510094629 | 56 | 135 | 3.0 | 7.0 | 0.00 | 0.00 | 0.00 | 30 | 1353.8 |
| 20260510094125 | 56 | 131 | 6.0 | 9.0 | 0.00 | 0.00 | 0.00 | 29 | 1353.4 |
| 20260510093621 | 57 | 186 | 0.0 | 10.0 | 0.00 | 0.00 | 0.00 | 29 | 1353.1 |
| 20260510093119 | 56 | 10 | 4.0 | 10.0 | 0.00 | 0.00 | 0.00 | 28 | 1352.8 |
| 20260510092615 | 56 | 206 | 0.0 | 6.0 | 0.00 | 0.00 | 0.00 | 28 | 1352.7 |
| 20260510092115 | 57 | 344 | 2.0 | 5.0 | 0.00 | 0.00 | 0.00 | 28 | 1352.6 |
| 20260510091612 | 57 | 191 | 5.0 | 12.0 | 0.00 | 0.00 | 0.00 | 27 | 1352.4 |
| 20260510091108 | 57 | 161 | 3.0 | 17.0 | 0.00 | 0.00 | 0.00 | 27 | 1352.3 |
| 20260510090605 | 57 | 108 | 6.0 | 7.0 | 0.00 | 0.00 | 0.00 | 26 | 1352.2 |
| 20260510090101 | 57 | 123 | 5.0 | 8.0 | 0.00 | 0.00 | 0.00 | 27 | 1352.2 |
| 20260510085556 | 57 | 128 | 5.0 | 8.0 | 0.00 | 0.00 | 0.00 | 27 | 1352.3 |
| 20260510085052 | 57 | 144 | 5.0 | 10.0 | 0.00 | 0.00 | 0.00 | 26 | 1351.7 |
| 20260510084548 | 55 | 144 | 5.0 | 5.0 | 0.00 | 0.00 | 0.00 | 27 | 1351.9 |
| 20260510084045 | 56 | 135 | 3.0 | 4.0 | 0.00 | 0.00 | 0.00 | 26 | 1352.1 |
| 20260510083542 | 57 | 341 | 4.0 | 6.0 | 0.00 | 0.00 | 0.00 | 26 | 1352.1 |
| 20260510083038 | 58 | 175 | 5.0 | 7.0 | 0.00 | 0.00 | 0.00 | 24 | 1351.8 |
| 20260510082535 | 58 | 90 | 3.0 | 9.0 | 0.00 | 0.00 | 0.00 | 26 | 1351.8 |
| 20260510082030 | 58 | 134 | 4.0 | 10.0 | 0.00 | 0.00 | 0.00 | 26 | 1351.7 |
| 20260510081526 | 58 | 128 | 8.0 | 11.0 | 0.00 | 0.00 | 0.00 | 27 | 1351.9 |
| 20260510081022 | 57 | 123 | 10.0 | 13.0 | 0.00 | 0.00 | 0.00 | 28 | 1351.8 |
| 20260510080521 | 57 | 114 | 6.0 | 22.0 | 0.00 | 0.00 | 0.00 | 28 | 1351.6 |
| 20260510080018 | 56 | 142 | 8.0 | 16.0 | 0.00 | 0.00 | 0.00 | 28 | 1351.7 |
| 20260510075515 | 53 | 117 | 3.0 | 4.0 | 0.00 | 0.00 | 0.00 | 27 | 1351.7 |
| 20260510075012 | 53 | 78 | 3.0 | 4.0 | 0.00 | 0.00 | 0.00 | 27 | 1351.6 |
| 20260510074510 | 52 | 123 | 1.0 | 3.0 | 0.00 | 0.00 | 0.00 | 28 | 1351.4 |
| 20260510074005 | 52 | 106 | 1.0 | 3.0 | 0.00 | 0.00 | 0.00 | 28 | 1351.7 |
| 20260510073501 | 52 | 99 | 3.0 | 4.0 | 0.00 | 0.00 | 0.00 | 28 | 1351.9 |
| 20260510072958 | 52 | 120 | 1.0 | 3.0 | 0.00 | 0.00 | 0.00 | 27 | 1351.6 |
| 20260510072454 | 53 | 121 | 2.0 | 4.0 | 0.00 | 0.00 | 0.00 | 27 | 1351.6 |
| 20260510071950 | 53 | 90 | 1.0 | 4.0 | 0.00 | 0.00 | 0.00 | 27 | 1351.8 |
| 20260510071446 | 53 | 94 | 2.0 | 3.0 | 0.00 | 0.00 | 0.00 | 26 | 1351.7 |
| 20260510070945 | 53 | 110 | 3.0 | 3.0 | 0.00 | 0.00 | 0.00 | 26 | 1351.6 |
| 20260510070442 | 53 | 103 | 2.0 | 3.0 | 0.00 | 0.00 | 0.00 | 26 | 1351.4 |
| 20260510065937 | 54 | 84 | 1.0 | 3.0 | 0.00 | 0.00 | 0.00 | 25 | 1351.6 |
| 20260510065435 | 55 | 76 | 3.0 | 4.0 | 0.00 | 0.00 | 0.00 | 25 | 1351.4 |
| 20260510064930 | 53 | 96 | 1.0 | 3.0 | 0.00 | 0.00 | 0.00 | 26 | 1351.4 |
| 20260510064428 | 53 | 69 | 0.0 | 2.0 | 0.00 | 0.00 | 0.00 | 25 | 1351.8 |
| 20260510063925 | 54 | 82 | 1.0 | 3.0 | 0.00 | 0.00 | 0.00 | 25 | 1351.7 |
| 20260510063421 | 55 | 90 | 0.0 | 6.0 | 0.00 | 0.00 | 0.00 | 24 | 1351.8 |
| 20260510062919 | 55 | 119 | 2.0 | 3.0 | 0.00 | 0.00 | 0.00 | 24 | 1351.6 |
| 20260510062414 | 56 | 110 | 2.0 | 3.0 | 0.00 | 0.00 | 0.00 | 24 | 1351.4 |
| 20260510061909 | 57 | 36 | 3.0 | 4.0 | 0.00 | 0.00 | 0.00 | 23 | 1351.8 |
| 20260510061406 | 57 | 135 | 2.0 | 4.0 | 0.00 | 0.00 | 0.00 | 22 | 1351.6 |
| 20260510060902 | 56 | 108 | 3.0 | 4.0 | 0.00 | 0.00 | 0.00 | 22 | 1351.6 |
| 20260510060359 | 56 | 73 | 3.0 | 3.0 | 0.00 | 0.00 | 0.00 | 22 | 1351.2 |
| 20260510055855 | 60 | 334 | 2.0 | 3.0 | 0.00 | 0.00 | 0.00 | 20 | 1351.3 |
| 20260510055355 | 60 | 167 | 6.0 | 11.0 | 0.00 | 0.00 | 0.00 | 19 | 1351.3 |
| 20260510054849 | 59 | 107 | 5.0 | 7.0 | 0.00 | 0.00 | 0.00 | 20 | 1350.9 |
| 20260510054344 | 55 | 121 | 2.0 | 5.0 | 0.00 | 0.00 | 0.00 | 24 | 1350.9 |
| 20260510053839 | 56 | 61 | 2.0 | 5.0 | 0.00 | 0.00 | 0.00 | 22 | 1351.2 |
| 20260510053335 | 55 | 90 | 3.0 | 3.0 | 0.00 | 0.00 | 0.00 | 23 | 1351.3 |
| 20260510052832 | 56 | 90 | 1.0 | 2.0 | 0.00 | 0.00 | 0.00 | 23 | 1351.1 |
| 20260510052327 | 58 | 94 | 3.0 | 4.0 | 0.00 | 0.00 | 0.00 | 21 | 1351.1 |
| 20260510051824 | 59 | 77 | 4.0 | 6.0 | 0.00 | 0.00 | 0.00 | 21 | 1351.1 |
| 20260510051321 | 59 | 79 | 2.0 | 4.0 | 0.00 | 0.00 | 0.00 | 21 | 1350.9 |
| 20260510050818 | 59 | 70 | 2.0 | 3.0 | 0.00 | 0.00 | 0.00 | 21 | 1351.1 |
| 20260510050314 | 60 | 74 | 3.0 | 4.0 | 0.00 | 0.00 | 0.00 | 20 | 1351.1 |
| 20260510045811 | 60 | 17 | 3.0 | 6.0 | 0.00 | 0.00 | 0.00 | 20 | 1351.4 |
| 20260510045307 | 60 | 52 | 3.0 | 6.0 | 0.00 | 0.00 | 0.00 | 20 | 1351.2 |
| 20260510044805 | 59 | 18 | 4.0 | 4.0 | 0.00 | 0.00 | 0.00 | 20 | 1351.4 |
| 20260510044302 | 60 | 40 | 2.0 | 3.0 | 0.00 | 0.00 | 0.00 | 19 | 1351.3 |
| 20260510043758 | 60 | 21 | 2.0 | 4.0 | 0.00 | 0.00 | 0.00 | 19 | 1351.4 |
| 20260510043249 | 60 | 8 | 4.0 | 5.0 | 0.00 | 0.00 | 0.00 | 18 | 1351.3 |
| 20260510042746 | 60 | 65 | 2.0 | 7.0 | 0.00 | 0.00 | 0.00 | 18 | 1351.4 |
| 20260510042241 | 60 | 65 | 3.0 | 3.0 | 0.00 | 0.00 | 0.00 | 18 | 1351.2 |
| 20260510041738 | 60 | 38 | 3.0 | 4.0 | 0.00 | 0.00 | 0.00 | 17 | 1351.6 |
| 20260510041230 | 59 | 47 | 3.0 | 3.0 | 0.00 | 0.00 | 0.00 | 18 | 1351.4 |
| 20260510040727 | 61 | 95 | 2.0 | 3.0 | 0.00 | 0.00 | 0.00 | 17 | 1351.1 |
| 20260510040224 | 62 | 350 | 3.0 | 4.0 | 0.00 | 0.00 | 0.00 | 16 | 1351.2 |
| 20260510035719 | 62 | 22 | 3.0 | 9.0 | 0.00 | 0.00 | 0.00 | 16 | 1351.1 |
| 20260510035215 | 61 | 337 | 1.0 | 6.0 | 0.00 | 0.00 | 0.00 | 15 | 1350.8 |
| 20260510034711 | 61 | 297 | 1.0 | 3.0 | 0.00 | 0.00 | 0.00 | 16 | 1350.8 |
| 20260510034210 | 62 | 132 | 0.0 | 2.0 | 0.00 | 0.00 | 0.00 | 16 | 1351.1 |
| 20260510033705 | 62 | 19 | 3.0 | 4.0 | 0.00 | 0.00 | 0.00 | 16 | 1350.7 |
| 20260510033203 | 61 | 21 | 2.0 | 4.0 | 0.00 | 0.00 | 0.00 | 16 | 1350.8 |
| 20260510032659 | 61 | 114 | 0.0 | 2.0 | 0.00 | 0.00 | 0.00 | 17 | 1350.8 |
| 20260510032155 | 62 | 145 | 1.0 | 2.0 | 0.00 | 0.00 | 0.00 | 17 | 1350.8 |
| 20260510031649 | 64 | 6 | 0.0 | 4.0 | 0.00 | 0.00 | 0.00 | 15 | 1350.6 |
| 20260510031146 | 64 | 73 | 2.0 | 2.0 | 0.00 | 0.00 | 0.00 | 15 | 1350.6 |
| 20260510030641 | 64 | 103 | 1.0 | 2.0 | 0.00 | 0.00 | 0.00 | 15 | 1350.3 |
| 20260510030139 | 65 | 309 | 3.0 | 5.0 | 0.00 | 0.00 | 0.00 | 15 | 1350.3 |
| 20260510025636 | 65 | 300 | 4.0 | 4.0 | 0.00 | 0.00 | 0.00 | 15 | 1350.2 |
| 20260510025133 | 65 | 6 | 1.0 | 5.0 | 0.00 | 0.00 | 0.00 | 15 | 1350.0 |
| 20260510024629 | 65 | 284 | 3.0 | 6.0 | 0.00 | 0.00 | 0.00 | 14 | 1350.0 |
| 20260510024126 | 65 | 15 | 2.0 | 4.0 | 0.00 | 0.00 | 0.00 | 15 | 1349.9 |
| 20260510023622 | 66 | 343 | 4.0 | 4.0 | 0.00 | 0.00 | 0.00 | 14 | 1349.8 |
| 20260510023120 | 66 | 242 | 4.0 | 8.0 | 0.00 | 0.00 | 0.00 | 14 | 1349.9 |
| 20260510022619 | 66 | 318 | 5.0 | 8.0 | 0.00 | 0.00 | 0.00 | 14 | 1349.9 |
| 20260510022114 | 67 | 357 | 6.0 | 9.0 | 0.00 | 0.00 | 0.00 | 14 | 1349.7 |
| 20260510021610 | 67 | 295 | 8.0 | 14.0 | 0.00 | 0.00 | 0.00 | 14 | 1349.7 |
| 20260510021108 | 68 | 353 | 17.0 | 18.0 | 0.00 | 0.00 | 0.00 | 13 | 1349.8 |
| 20260510020602 | 67 | 335 | 11.0 | 14.0 | 0.00 | 0.00 | 0.00 | 13 | 1349.4 |
| 20260510020058 | 68 | 69 | 1.0 | 5.0 | 0.00 | 0.00 | 0.00 | 13 | 1349.4 |
| 20260510015554 | 68 | 250 | 11.0 | 11.0 | 0.00 | 0.00 | 0.00 | 13 | 1349.5 |
| 20260510015050 | 68 | 220 | 3.0 | 9.0 | 0.00 | 0.00 | 0.00 | 13 | 1349.4 |
| 20260510014546 | 68 | 262 | 1.0 | 11.0 | 0.00 | 0.00 | 0.00 | 13 | 1349.4 |
| 20260510014044 | 69 | 215 | 4.0 | 9.0 | 0.00 | 0.00 | 0.00 | 13 | 1349.4 |
| 20260510013538 | 69 | 3 | 3.0 | 10.0 | 0.00 | 0.00 | 0.00 | 13 | 1349.4 |
| 20260510013034 | 69 | 348 | 2.0 | 4.0 | 0.00 | 0.00 | 0.00 | 13 | 1349.2 |
| 20260510012528 | 69 | 285 | 1.0 | 10.0 | 0.00 | 0.00 | 0.00 | 13 | 1349.3 |
| 20260510012025 | 69 | 272 | 7.0 | 15.0 | 0.00 | 0.00 | 0.00 | 13 | 1349.0 |
| 20260510011524 | 69 | 12 | 1.0 | 21.0 | 0.00 | 0.00 | 0.00 | 13 | 1349.0 |
| 20260510011020 | 69 | 247 | 7.0 | 20.0 | 0.00 | 0.00 | 0.00 | 13 | 1349.2 |
| 20260510010517 | 69 | 256 | 5.0 | 8.0 | 0.00 | 0.00 | 0.00 | 12 | 1349.2 |
| 20260510010014 | 69 | 264 | 3.0 | 10.0 | 0.00 | 0.00 | 0.00 | 12 | 1349.0 |
| 20260510005510 | 70 | 348 | 2.0 | 20.0 | 0.00 | 0.00 | 0.00 | 12 | 1349.0 |
| 20260510005008 | 70 | 256 | 5.0 | 24.0 | 0.00 | 0.00 | 0.00 | 12 | 1348.9 |
| 20260510004505 | 70 | 313 | 7.0 | 18.0 | 0.00 | 0.00 | 0.00 | 12 | 1349.0 |
| 20260510004003 | 70 | 288 | 15.0 | 16.0 | 0.00 | 0.00 | 0.00 | 12 | 1348.8 |
| 20260510003459 | 71 | 322 | 7.0 | 21.0 | 0.00 | 0.00 | 0.00 | 12 | 1349.0 |
| 20260510002955 | 71 | 291 | 10.0 | 13.0 | 0.00 | 0.00 | 0.00 | 12 | 1348.9 |
| 20260510002451 | 71 | 286 | 8.0 | 24.0 | 0.00 | 0.00 | 0.00 | 12 | 1348.8 |
| 20260510001947 | 72 | 277 | 4.0 | 24.0 | 0.00 | 0.00 | 0.00 | 12 | 1348.7 |
| 20260510001445 | 73 | 303 | 5.0 | 16.0 | 0.00 | 0.00 | 0.00 | 11 | 1348.9 |
| 20260510000943 | 72 | 318 | 8.0 | 20.0 | 0.00 | 0.00 | 0.00 | 12 | 1348.8 |
| 20260510000440 | 72 | 316 | 15.0 | 22.0 | 0.00 | 0.00 | 0.00 | 12 | 1348.8 |
| 20260509235935 | 72 | 237 | 5.0 | 16.0 | 0.00 | 0.00 | 0.00 | 11 | 1348.8 |
| 20260509235432 | 73 | 269 | 11.0 | 17.0 | 0.00 | 0.00 | 0.00 | 11 | 1348.8 |
| 20260509234928 | 73 | 257 | 4.0 | 16.0 | 0.00 | 0.00 | 0.00 | 11 | 1348.8 |
| 20260509234425 | 72 | 219 | 4.0 | 16.0 | 0.00 | 0.00 | 0.00 | 12 | 1348.7 |
| 20260509233923 | 71 | 245 | 6.0 | 15.0 | 0.00 | 0.00 | 0.00 | 12 | 1348.5 |
| 20260509233420 | 72 | 267 | 7.0 | 17.0 | 0.00 | 0.00 | 0.00 | 12 | 1348.9 |
| 20260509232916 | 72 | 283 | 5.0 | 20.0 | 0.00 | 0.00 | 0.00 | 12 | 1348.8 |
| 20260509232414 | 73 | 239 | 3.0 | 21.0 | 0.00 | 0.00 | 0.00 | 12 | 1348.8 |
| 20260509231909 | 76 | 296 | 7.0 | 24.0 | 0.00 | 0.00 | 0.00 | 11 | 1348.8 |
| 20260509231407 | 75 | 289 | 7.0 | 16.0 | 0.00 | 0.00 | 0.00 | 10 | 1348.9 |
| 20260509230905 | 75 | 270 | 8.0 | 18.0 | 0.00 | 0.00 | 0.00 | 11 | 1348.9 |
| 20260509230401 | 73 | 242 | 16.0 | 16.0 | 0.00 | 0.00 | 0.00 | 11 | 1348.8 |
| 20260509225857 | 75 | 261 | 8.0 | 20.0 | 0.00 | 0.00 | 0.00 | 11 | 1349.0 |
| 20260509225354 | 75 | 218 | 6.0 | 34.0 | 0.00 | 0.00 | 0.00 | 11 | 1349.0 |
| 20260509224849 | 75 | 268 | 11.0 | 19.0 | 0.00 | 0.00 | 0.00 | 12 | 1348.8 |
| 20260509224346 | 73 | 302 | 10.0 | 21.0 | 0.00 | 0.00 | 0.00 | 13 | 1348.8 |
| 20260509223843 | 71 | 286 | 3.0 | 16.0 | 0.00 | 0.00 | 0.00 | 13 | 1348.8 |
| 20260509223339 | 71 | 216 | 5.0 | 14.0 | 0.00 | 0.00 | 0.00 | 13 | 1349.0 |
| 20260509222837 | 71 | 21 | 7.0 | 23.0 | 0.00 | 0.00 | 0.00 | 14 | 1349.8 |
| 20260509222332 | 73 | 252 | 5.0 | 8.0 | 0.00 | 0.00 | 0.00 | 13 | 1349.3 |
| 20260509221827 | 73 | 255 | 7.0 | 10.0 | 0.00 | 0.00 | 0.00 | 13 | 1349.2 |
| 20260509221325 | 72 | 276 | 8.0 | 15.0 | 0.00 | 0.00 | 0.00 | 13 | 1349.4 |
| 20260509220825 | 74 | 208 | 13.0 | 25.0 | 0.00 | 0.00 | 0.00 | 12 | 1349.3 |
| 20260509220321 | 77 | 234 | 9.0 | 19.0 | 0.00 | 0.00 | 0.00 | 12 | 1348.9 |
| 20260509215817 | 77 | 272 | 9.0 | 20.0 | 0.00 | 0.00 | 0.00 | 11 | 1349.2 |
| 20260509215314 | 77 | 198 | 9.0 | 19.0 | 0.00 | 0.00 | 0.00 | 12 | 1349.0 |
| 20260509214811 | 76 | 222 | 10.0 | 34.0 | 0.00 | 0.00 | 0.00 | 12 | 1349.0 |
| 20260509214308 | 73 | 266 | 7.0 | 21.0 | 0.00 | 0.00 | 0.00 | 12 | 1349.7 |
| 20260509213805 | 74 | 265 | 4.0 | 18.0 | 0.00 | 0.00 | 0.00 | 12 | 1349.4 |
| 20260509213301 | 73 | 313 | 3.0 | 21.0 | 0.00 | 0.00 | 0.00 | 12 | 1349.3 |
| 20260509212758 | 74 | 348 | 8.0 | 17.0 | 0.00 | 0.00 | 0.00 | 12 | 1349.5 |
| 20260509212255 | 74 | 265 | 4.0 | 23.0 | 0.00 | 0.00 | 0.00 | 12 | 1349.7 |
| 20260509211751 | 75 | 263 | 16.0 | 16.0 | 0.00 | 0.00 | 0.00 | 12 | 1349.5 |
| 20260509211247 | 73 | 299 | 5.0 | 19.0 | 0.00 | 0.00 | 0.00 | 13 | 1349.8 |
| 20260509210744 | 74 | 226 | 7.0 | 18.0 | 0.00 | 0.00 | 0.00 | 12 | 1349.7 |
| 20260509210242 | 75 | 274 | 11.0 | 25.0 | 0.00 | 0.00 | 0.00 | 13 | 1350.2 |
| 20260509205741 | 73 | 88 | 6.0 | 22.0 | 0.00 | 0.00 | 0.00 | 13 | 1349.8 |
| 20260509205236 | 72 | 309 | 7.0 | 18.0 | 0.00 | 0.00 | 0.00 | 14 | 1350.0 |
| 20260509204732 | 74 | 284 | 5.0 | 8.0 | 0.00 | 0.00 | 0.00 | 13 | 1350.0 |
| 20260509204229 | 72 | 231 | 3.0 | 14.0 | 0.00 | 0.00 | 0.00 | 14 | 1350.3 |
| 20260509203725 | 73 | 295 | 13.0 | 19.0 | 0.00 | 0.00 | 0.00 | 14 | 1350.4 |
| 20260509203223 | 71 | 279 | 8.0 | 16.0 | 0.00 | 0.00 | 0.00 | 14 | 1350.6 |
| 20260509202718 | 71 | 287 | 12.0 | 17.0 | 0.00 | 0.00 | 0.00 | 15 | 1350.6 |
| 20260509202214 | 73 | 264 | 18.0 | 19.0 | 0.00 | 0.00 | 0.00 | 14 | 1350.7 |
| 20260509201709 | 73 | 231 | 9.0 | 17.0 | 0.00 | 0.00 | 0.00 | 14 | 1350.6 |
| 20260509201206 | 74 | 263 | 7.0 | 21.0 | 0.00 | 0.00 | 0.00 | 13 | 1350.7 |
| 20260509200703 | 74 | 295 | 11.0 | 13.0 | 0.00 | 0.00 | 0.00 | 13 | 1350.4 |
| 20260509200157 | 75 | 226 | 10.0 | 17.0 | 0.00 | 0.00 | 0.00 | 13 | 1350.9 |
| 20260509195654 | 74 | 213 | 9.0 | 28.0 | 0.00 | 0.00 | 0.00 | 13 | 1351.1 |
| 20260509195149 | 75 | 205 | 5.0 | 22.0 | 0.00 | 0.00 | 0.00 | 13 | 1350.8 |
| 20260509194643 | 73 | 280 | 13.0 | 17.0 | 0.00 | 0.00 | 0.00 | 14 | 1350.8 |
| 20260509194140 | 71 | 314 | 10.0 | 16.0 | 0.00 | 0.00 | 0.00 | 15 | 1350.8 |
| 20260509193636 | 72 | 270 | 1.0 | 23.0 | 0.00 | 0.00 | 0.00 | 15 | 1350.8 |
| 20260509193132 | 75 | 301 | 13.0 | 24.0 | 0.00 | 0.00 | 0.00 | 14 | 1351.2 |
| 20260509192629 | 76 | 247 | 10.0 | 19.0 | 0.00 | 0.00 | 0.00 | 14 | 1350.8 |